createdAt,value
2023-08-05T00:01:43.551Z,15.05
2023-08-05T00:04:11.497Z,14.96
2023-08-05T00:06:39.368Z,15.24
2023-08-05T00:09:07.706Z,15.28
2023-08-05T00:11:38.215Z,15.41
2023-08-05T00:14:06.129Z,15.39
2023-08-05T00:16:35.365Z,15.57
2023-08-05T00:19:03.236Z,15.22
2023-08-05T00:21:31.086Z,15.12
2023-08-05T00:23:58.887Z,15.36
2023-08-05T00:26:26.696Z,15.22
2023-08-05T00:28:54.562Z,15.35
2023-08-05T00:31:25.440Z,15.51
2023-08-05T00:33:54.640Z,15.50
2023-08-05T00:36:22.488Z,15.76
2023-08-05T00:38:50.301Z,15.81
2023-08-05T00:41:18.106Z,15.73
2023-08-05T00:43:45.919Z,15.72
2023-08-05T00:46:13.991Z,15.97
2023-08-05T00:48:41.846Z,15.79
2023-08-05T00:51:11.070Z,15.88
2023-08-05T00:53:38.907Z,15.98
2023-08-05T00:56:06.714Z,15.95
2023-08-05T00:58:34.527Z,16.05
2023-08-05T01:01:02.428Z,15.99
2023-08-05T01:03:30.264Z,15.80
2023-08-05T01:05:58.037Z,15.75
2023-08-05T01:08:27.257Z,15.32
2023-08-05T01:10:55.084Z,15.42
2023-08-05T01:13:22.948Z,15.09
2023-08-05T01:15:50.843Z,15.37
2023-08-05T01:18:18.676Z,15.28
2023-08-05T01:20:48.011Z,15.47
2023-08-05T01:23:18.099Z,15.21
2023-08-05T01:25:47.374Z,15.52
2023-08-05T01:28:16.616Z,15.51
2023-08-05T01:30:44.504Z,15.41
2023-08-05T01:33:12.329Z,15.46
2023-08-05T01:35:40.213Z,15.29
2023-08-05T01:38:08.032Z,15.09
2023-08-05T01:40:35.890Z,14.81
2023-08-05T01:43:07.730Z,14.92
2023-08-05T01:45:36.571Z,14.91
2023-08-05T01:48:05.000Z,14.82
2023-08-05T01:50:33.051Z,15.18
2023-08-05T01:53:00.831Z,15.41
2023-08-05T01:55:28.683Z,15.50
2023-08-05T01:57:56.508Z,15.63
2023-08-05T02:00:25.813Z,15.23
2023-08-05T02:02:53.677Z,15.26
2023-08-05T02:05:21.740Z,15.52
2023-08-05T02:07:49.538Z,15.48
2023-08-05T02:10:17.763Z,15.39
2023-08-05T02:12:45.605Z,14.98
2023-08-05T02:15:13.470Z,15.34
2023-08-05T02:17:42.662Z,15.64
2023-08-05T02:20:11.565Z,15.55
2023-08-05T02:22:39.724Z,15.64
2023-08-05T02:25:08.382Z,15.61
2023-08-05T02:27:36.202Z,15.65
2023-08-05T02:30:04.326Z,15.66
2023-08-05T02:32:34.462Z,15.54
2023-08-05T02:35:03.729Z,15.56
2023-08-05T02:37:31.672Z,15.70
2023-08-05T02:39:59.527Z,15.62
2023-08-05T02:42:27.330Z,15.72
2023-08-05T02:44:55.150Z,15.47
2023-08-05T02:47:22.990Z,15.95
2023-08-05T02:49:50.882Z,15.22
2023-08-05T02:52:20.592Z,15.50
2023-08-05T02:54:48.431Z,15.63
2023-08-05T02:57:16.427Z,15.63
2023-08-05T02:59:44.390Z,15.59
2023-08-05T03:02:12.193Z,15.61
2023-08-05T03:04:40.029Z,15.62
2023-08-05T03:07:07.876Z,15.59
2023-08-05T03:09:37.129Z,14.61
2023-08-05T03:12:08.302Z,14.71
2023-08-05T03:14:36.451Z,14.84
2023-08-05T03:17:07.668Z,14.95
2023-08-05T03:19:35.543Z,15.11
2023-08-05T03:22:04.587Z,15.48
2023-08-05T03:24:33.500Z,15.40
2023-08-05T03:27:02.812Z,15.55
2023-08-05T03:29:31.670Z,15.54
2023-08-05T03:32:00.247Z,15.46
2023-08-05T03:34:28.973Z,15.42
2023-08-05T03:36:58.947Z,15.63
2023-08-05T03:39:26.817Z,15.71
2023-08-05T03:41:55.015Z,15.78
2023-08-05T03:44:24.256Z,15.71
2023-08-05T03:46:52.826Z,15.63
2023-08-05T03:49:20.928Z,15.61
2023-08-05T03:51:48.743Z,15.59
2023-08-05T03:54:16.810Z,15.75
2023-08-05T03:56:44.643Z,15.59
2023-08-05T03:59:12.458Z,15.27
2023-08-05T04:01:42.433Z,15.01
2023-08-05T04:04:10.358Z,14.81
2023-08-05T04:06:38.241Z,15.06
2023-08-05T04:09:07.318Z,14.80
2023-08-05T04:11:35.583Z,14.97
2023-08-05T04:14:05.028Z,15.27
2023-08-05T04:16:33.142Z,15.43
2023-08-05T04:19:02.772Z,15.54
2023-08-05T04:21:36.357Z,15.61
2023-08-05T04:24:04.249Z,15.72
2023-08-05T04:26:36.758Z,15.66
2023-08-05T04:29:05.131Z,15.69
2023-08-05T04:31:33.466Z,15.55
2023-08-05T04:34:02.669Z,15.63
2023-08-05T04:36:31.535Z,15.57
2023-08-05T04:39:00.520Z,15.65
2023-08-05T04:41:28.311Z,15.78
2023-08-05T04:43:56.107Z,15.49
2023-08-05T04:46:23.903Z,15.58
2023-08-05T04:48:51.790Z,15.63
2023-08-05T04:51:21.095Z,15.45
2023-08-05T04:53:48.956Z,15.01
2023-08-05T04:56:17.637Z,15.04
2023-08-05T04:58:45.559Z,15.24
2023-08-05T05:01:13.353Z,15.28
2023-08-05T05:03:41.241Z,15.44
2023-08-05T05:06:09.097Z,15.53
2023-08-05T05:08:38.214Z,15.52
2023-08-05T05:11:06.113Z,15.82
2023-08-05T05:13:33.934Z,15.28
2023-08-05T05:16:04.183Z,15.23
2023-08-05T05:18:32.076Z,15.21
2023-08-05T05:20:59.928Z,14.99
2023-08-05T05:23:27.774Z,15.14
2023-08-05T05:25:57.170Z,15.32
2023-08-05T05:28:24.998Z,15.51
2023-08-05T05:30:52.842Z,15.41
2023-08-05T05:33:20.680Z,15.47
2023-08-05T05:35:50.880Z,15.11
2023-08-05T05:38:18.675Z,15.28
2023-08-05T05:40:46.906Z,15.61
2023-08-05T05:43:16.121Z,15.15
2023-08-05T05:45:45.725Z,15.15
2023-08-05T05:48:13.680Z,15.44
2023-08-05T05:50:42.262Z,15.68
2023-08-05T05:53:14.627Z,14.98
2023-08-05T05:55:43.264Z,14.98
2023-08-05T05:58:11.156Z,15.41
2023-08-05T06:00:40.710Z,15.61
2023-08-05T06:03:08.877Z,15.14
2023-08-05T06:05:36.735Z,15.04
2023-08-05T06:08:04.843Z,15.14
2023-08-05T06:10:32.653Z,15.14
2023-08-05T06:13:01.865Z,15.10
2023-08-05T06:15:29.647Z,15.11
2023-08-05T06:17:58.835Z,15.17
2023-08-05T06:20:26.746Z,15.31
2023-08-05T06:22:54.637Z,15.16
2023-08-05T06:25:22.583Z,15.19
2023-08-05T06:27:53.453Z,15.18
2023-08-05T06:30:21.250Z,15.08
2023-08-05T06:32:49.096Z,14.83
2023-08-05T06:35:18.585Z,15.05
2023-08-05T06:37:46.545Z,14.88
2023-08-05T06:40:14.363Z,14.87
2023-08-05T06:42:42.161Z,14.93
2023-08-05T06:45:10.423Z,14.95
2023-08-05T06:47:38.230Z,15.00
2023-08-05T06:50:08.201Z,15.15
2023-08-05T06:52:37.314Z,15.11
2023-08-05T06:55:06.089Z,15.26
2023-08-05T06:57:33.914Z,15.14
2023-08-05T07:00:01.848Z,15.06
2023-08-05T07:02:29.806Z,15.15
2023-08-05T07:04:57.639Z,15.18
2023-08-05T07:07:25.565Z,15.54
2023-08-05T07:10:01.657Z,15.57
2023-08-05T07:12:29.471Z,15.69
2023-08-05T07:14:57.313Z,15.67
2023-08-05T07:17:26.899Z,15.68
2023-08-05T07:19:59.335Z,15.37
2023-08-05T07:22:27.297Z,15.22
2023-08-05T07:24:56.754Z,15.57
2023-08-05T07:27:24.644Z,15.61
2023-08-05T07:29:52.466Z,15.61
2023-08-05T07:32:20.381Z,15.94
2023-08-05T07:34:49.058Z,15.85
2023-08-05T07:37:17.518Z,15.85
2023-08-05T07:39:48.540Z,15.97
2023-08-05T07:42:20.213Z,16.13
2023-08-05T07:44:48.515Z,15.69
2023-08-05T07:47:16.341Z,15.78
2023-08-05T07:49:44.300Z,15.90
2023-08-05T07:52:12.138Z,15.96
2023-08-05T07:54:40.450Z,15.63
2023-08-05T07:57:08.814Z,15.90
2023-08-05T07:59:38.061Z,15.81
2023-08-05T08:02:07.544Z,15.95
2023-08-05T08:04:41.944Z,16.11
2023-08-05T08:07:34.103Z,15.81
2023-08-05T08:10:02.670Z,15.95
2023-08-05T08:12:30.486Z,15.72
2023-08-05T08:14:59.697Z,16.13
2023-08-05T08:17:27.552Z,15.99
2023-08-05T08:20:01.150Z,15.87
2023-08-05T08:22:29.036Z,15.95
2023-08-05T08:24:56.836Z,16.18
2023-08-05T08:27:24.693Z,16.22
2023-08-05T08:29:52.553Z,15.98
2023-08-05T08:32:21.893Z,16.01
2023-08-05T08:34:49.901Z,16.05
2023-08-05T08:37:18.010Z,16.00
2023-08-05T08:39:45.875Z,16.29
2023-08-05T08:42:17.468Z,15.90
2023-08-05T08:44:45.317Z,16.26
2023-08-05T08:47:13.122Z,16.22
2023-08-05T08:49:42.356Z,16.26
2023-08-05T08:52:10.205Z,16.16
2023-08-05T08:54:38.113Z,16.40
2023-08-05T08:57:06.795Z,16.50
2023-08-05T08:59:34.955Z,16.32
2023-08-05T09:02:02.967Z,16.37
2023-08-05T09:04:32.318Z,16.19
2023-08-05T09:07:01.562Z,16.41
2023-08-05T09:09:31.867Z,16.69
2023-08-05T09:12:02.861Z,16.29
2023-08-05T09:14:30.756Z,16.40
2023-08-05T09:17:05.589Z,16.21
2023-08-05T09:19:35.396Z,16.81
2023-08-05T09:22:05.110Z,16.65
2023-08-05T09:24:32.906Z,16.87
2023-08-05T09:27:02.771Z,16.78
2023-08-05T09:29:30.650Z,16.87
2023-08-05T09:31:59.506Z,16.80
2023-08-05T09:34:37.003Z,16.63
2023-08-05T09:37:08.175Z,17.02
2023-08-05T09:39:49.010Z,17.23
2023-08-05T09:42:25.409Z,16.83
2023-08-05T09:44:59.082Z,17.17
2023-08-05T09:47:32.191Z,17.05
2023-08-05T09:50:05.994Z,16.93
2023-08-05T09:52:38.149Z,17.41
2023-08-05T09:55:06.622Z,17.43
2023-08-05T09:57:34.802Z,17.27
2023-08-05T10:00:08.231Z,17.47
2023-08-05T10:02:36.327Z,17.68
2023-08-05T10:05:04.516Z,17.57
2023-08-05T10:07:32.422Z,17.19
2023-08-05T10:10:02.211Z,17.14
2023-08-05T10:12:31.910Z,16.99
2023-08-05T10:15:00.572Z,17.28
2023-08-05T10:17:29.188Z,17.13
2023-08-05T10:19:57.138Z,17.32
2023-08-05T10:22:25.706Z,17.33
2023-08-05T10:24:57.869Z,17.27
2023-08-05T10:27:38.168Z,17.27
2023-08-05T10:30:13.294Z,17.32
2023-08-05T10:32:51.737Z,17.38
2023-08-05T10:35:29.498Z,17.29
2023-08-05T10:38:21.265Z,17.27
2023-08-05T10:40:50.241Z,17.75
2023-08-05T10:43:31.684Z,17.40
2023-08-05T10:46:04.966Z,17.58
2023-08-05T10:48:33.636Z,17.78
2023-08-05T10:51:05.621Z,17.39
2023-08-05T10:53:33.573Z,17.55
2023-08-05T10:56:01.377Z,17.79
2023-08-05T10:58:36.462Z,17.69
2023-08-05T11:01:28.153Z,17.49
2023-08-05T11:03:57.883Z,17.61
2023-08-05T11:06:26.394Z,17.64
2023-08-05T11:08:54.223Z,17.96
2023-08-05T11:11:23.245Z,17.59
2023-08-05T11:13:53.583Z,17.57
2023-08-05T11:16:21.547Z,18.02
2023-08-05T11:18:57.364Z,17.99
2023-08-05T11:21:25.196Z,17.71
2023-08-05T11:23:53.080Z,17.80
2023-08-05T11:26:23.479Z,18.17
2023-08-05T11:28:52.690Z,18.32
2023-08-05T11:31:24.116Z,17.91
2023-08-05T11:33:52.178Z,18.09
2023-08-05T11:36:24.650Z,18.29
2023-08-05T11:38:58.542Z,18.38
2023-08-05T11:41:26.938Z,18.26
2023-08-05T11:43:56.359Z,18.43
2023-08-05T11:46:28.671Z,18.31
2023-08-05T11:49:12.557Z,18.38
2023-08-05T11:51:50.604Z,18.65
2023-08-05T11:54:26.125Z,18.88
2023-08-05T11:56:54.787Z,19.34
2023-08-05T12:02:21.051Z,18.51
2023-08-05T12:04:49.871Z,18.31
2023-08-05T12:07:18.472Z,18.66
2023-08-05T12:10:08.609Z,19.07
2023-08-05T12:12:36.914Z,18.60
2023-08-05T12:15:12.637Z,18.67
2023-08-05T12:17:42.862Z,19.02
2023-08-05T12:20:16.285Z,18.82
2023-08-05T12:22:44.836Z,18.83
2023-08-05T12:25:12.761Z,19.10
2023-08-05T12:27:40.898Z,19.15
2023-08-05T12:30:09.801Z,18.78
2023-08-05T12:32:37.893Z,18.81
2023-08-05T12:35:09.954Z,18.79
2023-08-05T12:37:43.377Z,18.61
2023-08-05T12:40:19.719Z,18.51
2023-08-05T12:42:47.686Z,19.07
2023-08-05T12:45:15.673Z,19.03
2023-08-05T12:47:43.479Z,18.65
2023-08-05T12:50:13.021Z,18.65
2023-08-05T12:52:40.817Z,18.87
2023-08-05T12:55:10.814Z,18.82
2023-08-05T12:57:39.578Z,18.83
2023-08-05T13:00:08.605Z,18.81
2023-08-05T13:02:36.617Z,19.10
2023-08-05T13:05:05.041Z,19.21
2023-08-05T13:07:34.302Z,19.05
2023-08-05T13:10:02.189Z,18.99
2023-08-05T13:12:30.096Z,19.12
2023-08-05T13:14:57.992Z,19.08
2023-08-05T13:17:26.007Z,18.97
2023-08-05T13:19:53.881Z,19.02
2023-08-05T13:22:21.698Z,18.85
2023-08-05T13:24:50.897Z,18.89
2023-08-05T13:27:22.364Z,19.20
2023-08-05T13:29:57.536Z,19.01
2023-08-05T13:32:25.357Z,18.98
2023-08-05T13:34:53.600Z,18.78
2023-08-05T13:37:21.585Z,18.79
2023-08-05T13:39:53.688Z,18.85
2023-08-05T13:42:21.807Z,18.49
2023-08-05T13:44:49.883Z,18.70
2023-08-05T13:47:17.816Z,18.73
2023-08-05T13:49:45.631Z,18.57
2023-08-05T13:52:13.886Z,18.59
2023-08-05T13:54:43.786Z,18.56
2023-08-05T13:57:13.000Z,18.67
2023-08-05T13:59:40.885Z,18.82
2023-08-05T14:02:08.853Z,18.64
2023-08-05T14:04:36.803Z,18.66
2023-08-05T14:07:06.982Z,18.66
2023-08-05T14:09:35.626Z,18.67
2023-08-05T14:12:05.869Z,18.63
2023-08-05T14:14:35.063Z,18.65
2023-08-05T14:17:02.883Z,18.62
2023-08-05T14:19:30.686Z,18.63
2023-08-05T14:21:58.459Z,18.67
2023-08-05T14:24:26.255Z,18.66
2023-08-05T14:26:54.065Z,18.48
2023-08-05T14:29:21.891Z,18.49
2023-08-05T14:31:51.389Z,18.26
2023-08-05T14:34:19.538Z,18.12
2023-08-05T14:36:47.357Z,18.32
2023-08-05T14:39:16.301Z,18.31
2023-08-05T14:41:44.196Z,18.27
2023-08-05T14:44:12.026Z,18.12
2023-08-05T14:46:40.036Z,18.27
2023-08-05T14:49:09.231Z,18.29
2023-08-05T14:51:43.214Z,18.27
2023-08-05T14:54:11.212Z,18.46
2023-08-05T14:56:39.534Z,18.59
2023-08-05T14:59:07.357Z,18.55
2023-08-05T15:01:35.269Z,18.59
2023-08-05T15:04:03.212Z,18.71
2023-08-05T15:06:34.152Z,18.76
2023-08-05T15:09:03.013Z,18.96
2023-08-05T15:11:31.565Z,19.00
2023-08-05T15:13:59.379Z,19.01
2023-08-05T15:16:33.578Z,18.90
2023-08-05T15:19:01.459Z,18.85
2023-08-05T15:21:29.352Z,18.91
2023-08-05T15:23:58.536Z,19.05
2023-08-05T15:26:26.429Z,19.10
2023-08-05T15:28:54.302Z,19.27
2023-08-05T15:31:22.161Z,19.54
2023-08-05T15:33:50.034Z,19.39
2023-08-05T15:36:18.343Z,19.55
2023-08-05T15:38:46.278Z,19.31
2023-08-05T15:41:15.429Z,19.79
2023-08-05T15:43:43.390Z,20.11
2023-08-05T15:46:11.327Z,19.96
2023-08-05T15:48:39.239Z,19.77
2023-08-05T15:51:07.051Z,19.88
2023-08-05T15:53:34.890Z,19.77
2023-08-05T15:56:03.203Z,19.55
2023-08-05T15:58:32.621Z,19.71
2023-08-05T16:01:01.496Z,19.58
2023-08-05T16:03:29.533Z,19.63
2023-08-05T16:06:04.150Z,19.62
2023-08-05T16:08:32.056Z,19.74
2023-08-05T16:11:01.424Z,19.56
2023-08-05T16:13:29.217Z,19.66
2023-08-05T16:16:08.058Z,19.75
2023-08-05T16:18:35.913Z,19.73
2023-08-05T16:21:21.022Z,19.46
2023-08-05T16:23:50.587Z,19.13
2023-08-05T16:26:21.799Z,19.34
2023-08-05T16:28:49.600Z,19.39
2023-08-05T16:31:26.326Z,19.37
2023-08-05T16:33:54.302Z,19.41
2023-08-05T16:36:23.651Z,19.21
2023-08-05T16:38:51.546Z,19.16
2023-08-05T16:41:19.413Z,19.03
2023-08-05T16:43:48.614Z,19.10
2023-08-05T16:46:18.798Z,19.18
2023-08-05T16:48:46.965Z,19.24
2023-08-05T16:51:14.782Z,19.03
2023-08-05T16:53:42.830Z,19.14
2023-08-05T16:56:15.199Z,18.98
2023-08-05T16:58:46.972Z,18.99
2023-08-05T17:01:14.941Z,19.13
2023-08-05T17:03:44.332Z,19.05
2023-08-05T17:06:12.332Z,19.12
2023-08-05T17:08:40.422Z,19.17
2023-08-05T17:11:09.303Z,19.33
2023-08-05T17:13:37.152Z,19.17
2023-08-05T17:16:05.602Z,18.95
2023-08-05T17:18:33.511Z,19.14
2023-08-05T17:21:02.992Z,19.21
2023-08-05T17:23:30.976Z,19.19
2023-08-05T17:25:59.101Z,19.47
2023-08-05T17:28:27.176Z,19.44
2023-08-05T17:30:57.790Z,19.04
2023-08-05T17:33:25.900Z,18.87
2023-08-05T17:35:54.426Z,19.05
2023-08-05T17:38:25.740Z,19.06
2023-08-05T17:40:55.337Z,18.94
2023-08-05T17:43:23.221Z,18.87
2023-08-05T17:45:58.276Z,18.90
2023-08-05T17:48:29.781Z,18.85
2023-08-05T17:50:58.797Z,19.01
2023-08-05T17:53:58.334Z,18.89
2023-08-05T17:56:17.537Z,18.70
2023-08-05T17:58:49.230Z,18.80
2023-08-05T18:01:22.028Z,19.07
2023-08-05T18:03:49.961Z,18.95
2023-08-05T18:06:22.270Z,18.58
2023-08-05T18:08:51.726Z,18.89
2023-08-05T18:11:20.214Z,18.75
2023-08-05T18:13:48.144Z,18.70
2023-08-05T18:16:16.096Z,18.67
2023-08-05T18:18:46.546Z,18.75
2023-08-05T18:21:14.355Z,18.63
2023-08-05T18:23:43.455Z,18.49
2023-08-05T18:26:15.729Z,18.53
2023-08-05T18:28:49.283Z,18.70
2023-08-05T18:31:21.547Z,18.59
2023-08-05T18:33:49.685Z,18.57
2023-08-05T18:36:20.028Z,18.51
2023-08-05T18:38:47.977Z,18.52
2023-08-05T18:41:17.336Z,18.22
2023-08-05T18:43:45.495Z,17.98
2023-08-05T18:46:18.456Z,17.99
2023-08-05T18:48:47.994Z,17.91
2023-08-05T18:51:15.868Z,18.06
2023-08-05T18:53:43.674Z,18.17
2023-08-05T18:56:13.700Z,18.44
2023-08-05T18:58:42.851Z,18.31
2023-08-05T19:01:10.786Z,18.13
2023-08-05T19:03:41.541Z,18.04
2023-08-05T19:06:11.305Z,18.11
2023-08-05T19:08:39.260Z,18.20
2023-08-05T19:11:14.825Z,18.15
2023-08-05T19:13:45.978Z,18.38
2023-08-05T19:16:13.872Z,18.38
2023-08-05T19:18:46.763Z,18.18
2023-08-05T19:21:14.643Z,18.19
2023-08-05T19:23:42.435Z,18.03
2023-08-05T19:26:11.124Z,18.03
2023-08-05T19:28:38.973Z,17.84
2023-08-05T19:31:08.381Z,17.81
2023-08-05T19:33:39.455Z,17.64
2023-08-05T19:36:12.683Z,17.66
2023-08-05T19:38:40.757Z,17.91
2023-08-05T19:41:08.845Z,18.00
2023-08-05T19:43:37.664Z,18.03
2023-08-05T19:46:07.841Z,18.14
2023-08-05T19:48:35.806Z,18.16
2023-08-05T19:51:14.255Z,17.99
2023-08-05T19:53:43.042Z,17.92
2023-08-05T19:56:12.565Z,17.78
2023-08-05T19:58:46.525Z,17.60
2023-08-05T20:01:15.931Z,17.65
2023-08-05T20:03:43.757Z,17.66
2023-08-05T20:06:12.811Z,17.61
2023-08-05T20:08:40.771Z,17.28
2023-08-05T20:11:12.697Z,17.21
2023-08-05T20:13:43.160Z,17.42
2023-08-05T20:16:11.275Z,17.49
2023-08-05T20:18:40.621Z,17.68
2023-08-05T20:21:09.286Z,17.56
2023-08-05T20:23:38.386Z,17.48
2023-08-05T20:26:10.291Z,17.51
2023-08-05T20:28:38.285Z,17.42
2023-08-05T20:31:06.471Z,17.31
2023-08-05T20:33:35.849Z,17.39
2023-08-05T20:36:05.310Z,17.17
2023-08-05T20:38:33.132Z,17.17
2023-08-05T20:41:03.556Z,17.38
2023-08-05T20:43:36.826Z,17.61
2023-08-05T20:46:04.821Z,17.57
2023-08-05T20:48:35.521Z,17.30
2023-08-05T20:51:05.437Z,17.14
2023-08-05T20:53:34.756Z,16.97
2023-08-05T20:56:02.729Z,16.86
2023-08-05T20:58:30.767Z,16.88
2023-08-05T21:01:00.735Z,16.80
2023-08-05T21:03:28.861Z,16.95
2023-08-05T21:06:01.186Z,17.00
2023-08-05T21:08:29.029Z,16.80
2023-08-05T21:11:05.756Z,16.66
2023-08-05T21:13:33.585Z,16.90
2023-08-05T21:16:01.444Z,17.27
2023-08-05T21:18:29.319Z,17.25
2023-08-05T21:20:57.244Z,17.32
2023-08-05T21:23:25.225Z,17.12
2023-08-05T21:25:53.141Z,16.95
2023-08-05T21:28:22.369Z,17.20
2023-08-05T21:30:50.941Z,16.93
2023-08-05T21:33:19.018Z,16.63
2023-08-05T21:35:46.817Z,16.78
2023-08-05T21:38:14.705Z,16.89
2023-08-05T21:40:46.864Z,17.23
2023-08-05T21:43:15.340Z,17.12
2023-08-05T21:45:48.145Z,16.84
2023-08-05T21:48:16.023Z,16.54
2023-08-05T21:50:43.967Z,16.51
2023-08-05T21:53:11.779Z,16.75
2023-08-05T21:55:39.835Z,16.85
2023-08-05T21:58:08.024Z,16.94
2023-08-05T22:00:36.218Z,16.83
2023-08-05T22:03:05.542Z,16.56
2023-08-05T22:05:33.737Z,16.45
2023-08-05T22:08:01.572Z,16.37
2023-08-05T22:10:29.413Z,16.53
2023-08-05T22:12:57.276Z,16.90
2023-08-05T22:15:25.179Z,16.99
2023-08-05T22:17:53.049Z,16.94
2023-08-05T22:20:22.454Z,17.03
2023-08-05T22:22:50.281Z,17.07
2023-08-05T22:25:18.230Z,17.07
2023-08-05T22:27:46.036Z,17.08
2023-08-05T22:30:14.064Z,16.92
2023-08-05T22:32:41.974Z,16.79
2023-08-05T22:35:09.972Z,16.49
2023-08-05T22:37:39.125Z,16.23
2023-08-05T22:40:08.264Z,16.38
2023-08-05T22:42:42.009Z,16.65
2023-08-05T22:45:14.925Z,16.75
2023-08-05T22:47:45.208Z,16.79
2023-08-05T22:50:18.488Z,16.63
2023-08-05T22:52:47.948Z,16.46
2023-08-05T22:55:15.786Z,16.38
2023-08-05T22:57:43.627Z,16.54
2023-08-05T23:00:12.476Z,16.42
2023-08-05T23:02:40.830Z,16.66
2023-08-05T23:05:09.778Z,16.72
2023-08-05T23:07:37.635Z,16.48
2023-08-05T23:10:07.526Z,16.47
2023-08-05T23:12:39.383Z,16.59
2023-08-05T23:15:08.431Z,16.36
2023-08-05T23:17:36.333Z,15.84
2023-08-05T23:20:05.510Z,15.83
2023-08-05T23:22:33.475Z,15.94
2023-08-05T23:25:01.307Z,15.88
2023-08-05T23:27:30.472Z,15.93
2023-08-05T23:29:58.420Z,15.92
2023-08-05T23:32:26.349Z,15.50
2023-08-05T23:34:54.438Z,15.66
2023-08-05T23:37:22.348Z,15.66
2023-08-05T23:39:50.226Z,16.01
2023-08-05T23:42:19.157Z,16.01
2023-08-05T23:44:48.340Z,16.28
2023-08-05T23:47:16.130Z,16.37
2023-08-05T23:49:44.159Z,16.45
2023-08-05T23:52:11.968Z,16.45
2023-08-05T23:54:39.774Z,16.51
2023-08-05T23:57:07.822Z,16.46
2023-08-05T23:59:35.676Z,16.23
